sensor_id;sensor_type;location;lat;lon;timestamp;pressure;altitude;pressure_sealevel;temperature;humidity
68075;BME280;54864;52.002;5.468;2023-04-04T00:00:05;102923.47;;;3.41;61.64
68075;BME280;54864;52.002;5.468;2023-04-04T00:01:08;102928.53;;;3.34;61.65
68075;BME280;54864;52.002;5.468;2023-04-04T00:02:09;102922.47;;;3.35;61.54
68075;BME280;54864;52.002;5.468;2023-04-04T00:03:10;102921.53;;;3.31;60.55
68075;BME280;54864;52.002;5.468;2023-04-04T00:04:12;102922.44;;;3.32;60.50
68075;BME280;54864;52.002;5.468;2023-04-04T00:05:16;102919.47;;;3.15;60.42
68075;BME280;54864;52.002;5.468;2023-04-04T00:06:17;102923.19;;;3.26;61.34
68075;BME280;54864;52.002;5.468;2023-04-04T00:07:19;102925.06;;;3.33;61.37
68075;BME280;54864;52.002;5.468;2023-04-04T00:08:20;102931.13;;;3.32;60.90
68075;BME280;54864;52.002;5.468;2023-04-04T00:09:22;102925.94;;;3.34;60.98
68075;BME280;54864;52.002;5.468;2023-04-04T00:10:24;102921.53;;;3.31;60.79
68075;BME280;54864;52.002;5.468;2023-04-04T00:11:26;102926.88;;;3.37;61.25
68075;BME280;54864;52.002;5.468;2023-04-04T00:12:30;102924.47;;;3.49;61.14
68075;BME280;54864;52.002;5.468;2023-04-04T00:13:32;102924.41;;;3.45;60.59
68075;BME280;54864;52.002;5.468;2023-04-04T00:14:32;102925.16;;;3.39;61.15
68075;BME280;54864;52.002;5.468;2023-04-04T00:15:34;102926.13;;;3.44;61.53
68075;BME280;54864;52.002;5.468;2023-04-04T00:16:36;102926.91;;;3.39;61.73
68075;BME280;54864;52.002;5.468;2023-04-04T00:17:41;102928.72;;;3.43;61.24
68075;BME280;54864;52.002;5.468;2023-04-04T00:18:42;102926.94;;;3.42;61.24
68075;BME280;54864;52.002;5.468;2023-04-04T00:19:44;102929.38;;;3.31;61.93
68075;BME280;54864;52.002;5.468;2023-04-04T00:20:45;102925.06;;;3.33;62.05
68075;BME280;54864;52.002;5.468;2023-04-04T00:21:48;102923.34;;;3.35;61.19
68075;BME280;54864;52.002;5.468;2023-04-04T00:22:49;102919.00;;;3.34;60.91
68075;BME280;54864;52.002;5.468;2023-04-04T00:23:51;102920.59;;;3.26;61.11
68075;BME280;54864;52.002;5.468;2023-04-04T00:24:53;102921.56;;;3.33;60.77
68075;BME280;54864;52.002;5.468;2023-04-04T00:25:56;102922.44;;;3.33;60.69
68075;BME280;54864;52.002;5.468;2023-04-04T00:26:57;102920.75;;;3.35;61.12
68075;BME280;54864;52.002;5.468;2023-04-04T00:28:01;102916.84;;;3.13;61.82
68075;BME280;54864;52.002;5.468;2023-04-04T00:29:02;102917.78;;;3.17;62.55
68075;BME280;54864;52.002;5.468;2023-04-04T00:30:05;102918.75;;;3.22;62.33
68075;BME280;54864;52.002;5.468;2023-04-04T00:31:06;102917.84;;;3.20;62.13
68075;BME280;54864;52.002;5.468;2023-04-04T00:32:09;102917.25;;;3.35;61.34
68075;BME280;54864;52.002;5.468;2023-04-04T00:33:12;102913.69;;;3.30;61.69
68075;BME280;54864;52.002;5.468;2023-04-04T00:34:14;102907.69;;;3.34;62.05
68075;BME280;54864;52.002;5.468;2023-04-04T00:35:14;102909.28;;;3.26;62.03
68075;BME280;54864;52.002;5.468;2023-04-04T00:36:16;102900.69;;;3.31;62.42
68075;BME280;54864;52.002;5.468;2023-04-04T00:37:18;102905.84;;;3.28;62.21
68075;BME280;54864;52.002;5.468;2023-04-04T00:38:20;102900.66;;;3.30;61.98
68075;BME280;54864;52.002;5.468;2023-04-04T00:39:21;102907.38;;;3.18;61.00
68075;BME280;54864;52.002;5.468;2023-04-04T00:40:25;102900.50;;;3.22;61.13
68075;BME280;54864;52.002;5.468;2023-04-04T00:41:30;102896.31;;;3.29;60.38
68075;BME280;54864;52.002;5.468;2023-04-04T00:42:32;102892.81;;;3.28;60.79
68075;BME280;54864;52.002;5.468;2023-04-04T00:43:34;102892.84;;;3.30;61.32
68075;BME280;54864;52.002;5.468;2023-04-04T00:44:37;102892.94;;;3.36;60.75
68075;BME280;54864;52.002;5.468;2023-04-04T00:45:38;102891.22;;;3.36;61.06
68075;BME280;54864;52.002;5.468;2023-04-04T00:46:40;102887.63;;;3.30;60.16
68075;BME280;54864;52.002;5.468;2023-04-04T00:47:42;102885.94;;;3.32;60.60
68075;BME280;54864;52.002;5.468;2023-04-04T00:48:45;102889.41;;;3.32;60.76
68075;BME280;54864;52.002;5.468;2023-04-04T00:49:47;102888.47;;;3.27;60.75
68075;BME280;54864;52.002;5.468;2023-04-04T00:50:48;102883.91;;;3.17;60.16
68075;BME280;54864;52.002;5.468;2023-04-04T00:51:49;102885.72;;;3.23;60.67
68075;BME280;54864;52.002;5.468;2023-04-04T00:52:52;102882.34;;;3.25;60.66
68075;BME280;54864;52.002;5.468;2023-04-04T00:53:54;102885.66;;;3.18;61.68
68075;BME280;54864;52.002;5.468;2023-04-04T00:54:56;102892.69;;;3.22;60.88
68075;BME280;54864;52.002;5.468;2023-04-04T00:55:57;102890.16;;;3.25;60.86
68075;BME280;54864;52.002;5.468;2023-04-04T00:57:05;102890.84;;;3.16;61.48
68075;BME280;54864;52.002;5.468;2023-04-04T00:58:06;102892.69;;;3.24;61.42
68075;BME280;54864;52.002;5.468;2023-04-04T00:59:08;102885.81;;;3.26;60.51
68075;BME280;54864;52.002;5.468;2023-04-04T01:00:10;102896.00;;;3.13;61.88
68075;BME280;54864;52.002;5.468;2023-04-04T01:01:12;102900.16;;;3.04;61.57
68075;BME280;54864;52.002;5.468;2023-04-04T01:02:13;102896.53;;;2.96;62.16
68075;BME280;54864;52.002;5.468;2023-04-04T01:03:15;102892.28;;;3.01;61.07
68075;BME280;54864;52.002;5.468;2023-04-04T01:04:18;102893.28;;;3.07;61.64
68075;BME280;54864;52.002;5.468;2023-04-04T01:05:20;102888.06;;;3.07;62.36
68075;BME280;54864;52.002;5.468;2023-04-04T01:06:21;102886.34;;;3.09;62.01
68075;BME280;54864;52.002;5.468;2023-04-04T01:07:23;102890.41;;;2.94;61.82
68075;BME280;54864;52.002;5.468;2023-04-04T01:08:25;102886.22;;;3.02;61.50
68075;BME280;54864;52.002;5.468;2023-04-04T01:09:31;102888.81;;;3.02;61.97
68075;BME280;54864;52.002;5.468;2023-04-04T01:10:32;102890.59;;;3.03;61.54
68075;BME280;54864;52.002;5.468;2023-04-04T01:11:34;102889.44;;;2.89;61.59
68075;BME280;54864;52.002;5.468;2023-04-04T01:12:37;102889.47;;;2.90;62.35
68075;BME280;54864;52.002;5.468;2023-04-04T01:13:40;102890.56;;;3.01;62.20
68075;BME280;54864;52.002;5.468;2023-04-04T01:14:42;102888.91;;;3.06;62.36
68075;BME280;54864;52.002;5.468;2023-04-04T01:15:44;102886.28;;;3.05;61.91
68075;BME280;54864;52.002;5.468;2023-04-04T01:16:47;102888.13;;;3.10;61.84
68075;BME280;54864;52.002;5.468;2023-04-04T01:17:51;102893.34;;;3.12;61.88
68075;BME280;54864;52.002;5.468;2023-04-04T01:18:55;102888.28;;;3.19;61.99
68075;BME280;54864;52.002;5.468;2023-04-04T01:20:03;102880.50;;;3.21;61.50
68075;BME280;54864;52.002;5.468;2023-04-04T01:21:09;102888.09;;;3.09;61.27
68075;BME280;54864;52.002;5.468;2023-04-04T01:22:17;102886.41;;;3.12;61.96
68075;BME280;54864;52.002;5.468;2023-04-04T01:23:20;102886.25;;;3.03;61.73
68075;BME280;54864;52.002;5.468;2023-04-04T01:24:32;102890.34;;;2.91;63.04
68075;BME280;54864;52.002;5.468;2023-04-04T01:25:34;102873.13;;;2.99;61.84
68075;BME280;54864;52.002;5.468;2023-04-04T01:26:37;102878.25;;;2.94;62.21
68075;BME280;54864;52.002;5.468;2023-04-04T01:27:38;102883.44;;;2.93;62.57
68075;BME280;54864;52.002;5.468;2023-04-04T01:28:40;102875.72;;;2.97;62.19
68075;BME280;54864;52.002;5.468;2023-04-04T01:29:43;102880.94;;;2.99;62.64
68075;BME280;54864;52.002;5.468;2023-04-04T01:30:45;102879.13;;;2.95;62.04
68075;BME280;54864;52.002;5.468;2023-04-04T01:31:49;102878.84;;;2.79;62.39
68075;BME280;54864;52.002;5.468;2023-04-04T01:32:58;102883.47;;;2.94;62.37
68075;BME280;54864;52.002;5.468;2023-04-04T01:34:08;102885.06;;;2.88;62.80
68075;BME280;54864;52.002;5.468;2023-04-04T01:35:17;102880.47;;;2.74;62.50
68075;BME280;54864;52.002;5.468;2023-04-04T01:36:34;102885.75;;;2.77;62.16
68075;BME280;54864;52.002;5.468;2023-04-04T01:37:48;102868.56;;;2.87;61.79
68075;BME280;54864;52.002;5.468;2023-04-04T01:38:58;102873.56;;;2.76;61.82
68075;BME280;54864;52.002;5.468;2023-04-04T01:40:07;102873.78;;;2.87;62.04
68075;BME280;54864;52.002;5.468;2023-04-04T01:41:14;102875.56;;;2.90;62.36
68075;BME280;54864;52.002;5.468;2023-04-04T01:42:16;102881.69;;;2.92;61.96
68075;BME280;54864;52.002;5.468;2023-04-04T01:43:21;102880.00;;;2.94;62.19
68075;BME280;54864;52.002;5.468;2023-04-04T01:44:25;102883.38;;;2.90;61.84
68075;BME280;54864;52.002;5.468;2023-04-04T01:45:28;102879.91;;;2.89;61.55
68075;BME280;54864;52.002;5.468;2023-04-04T01:46:30;102886.09;;;2.96;61.58
68075;BME280;54864;52.002;5.468;2023-04-04T01:47:37;102887.94;;;3.01;61.49
68075;BME280;54864;52.002;5.468;2023-04-04T01:48:39;102882.38;;;2.83;61.67
68075;BME280;54864;52.002;5.468;2023-04-04T01:49:40;102889.41;;;2.87;62.23
68075;BME280;54864;52.002;5.468;2023-04-04T01:50:42;102891.22;;;2.91;62.26
68075;BME280;54864;52.002;5.468;2023-04-04T01:51:43;102885.16;;;2.92;62.33
68075;BME280;54864;52.002;5.468;2023-04-04T01:52:45;102893.72;;;2.85;62.11
68075;BME280;54864;52.002;5.468;2023-04-04T01:53:47;102889.19;;;2.76;62.33
68075;BME280;54864;52.002;5.468;2023-04-04T01:54:48;102892.66;;;2.75;62.92
68075;BME280;54864;52.002;5.468;2023-04-04T01:55:51;102889.97;;;2.72;62.77
68075;BME280;54864;52.002;5.468;2023-04-04T01:56:55;102884.00;;;2.76;63.28
68075;BME280;54864;52.002;5.468;2023-04-04T01:57:57;102880.38;;;2.70;63.33
68075;BME280;54864;52.002;5.468;2023-04-04T01:58:59;102876.16;;;2.75;63.11
68075;BME280;54864;52.002;5.468;2023-04-04T02:00:00;102881.16;;;2.66;63.52
68075;BME280;54864;52.002;5.468;2023-04-04T02:01:04;102882.16;;;2.71;63.32
68075;BME280;54864;52.002;5.468;2023-04-04T02:02:06;102897.88;;;2.77;63.26
68075;BME280;54864;52.002;5.468;2023-04-04T02:03:11;102890.03;;;2.75;62.96
68075;BME280;54864;52.002;5.468;2023-04-04T02:04:11;102888.28;;;2.74;63.38
68075;BME280;54864;52.002;5.468;2023-04-04T02:05:14;102892.59;;;2.72;63.07
68075;BME280;54864;52.002;5.468;2023-04-04T02:06:15;102893.31;;;2.65;63.42
68075;BME280;54864;52.002;5.468;2023-04-04T02:07:17;102889.03;;;2.69;63.02
68075;BME280;54864;52.002;5.468;2023-04-04T02:08:18;102892.38;;;2.62;63.11
68075;BME280;54864;52.002;5.468;2023-04-04T02:09:20;102889.69;;;2.59;63.87
68075;BME280;54864;52.002;5.468;2023-04-04T02:10:21;102891.50;;;2.61;63.66
68075;BME280;54864;52.002;5.468;2023-04-04T02:11:23;102896.72;;;2.63;63.93
68075;BME280;54864;52.002;5.468;2023-04-04T02:12:26;102895.66;;;2.54;63.64
68075;BME280;54864;52.002;5.468;2023-04-04T02:13:28;102896.50;;;2.53;64.60
68075;BME280;54864;52.002;5.468;2023-04-04T02:14:29;102893.81;;;2.49;64.54
68075;BME280;54864;52.002;5.468;2023-04-04T02:15:31;102897.38;;;2.54;64.02
68075;BME280;54864;52.002;5.468;2023-04-04T02:16:31;102888.72;;;2.55;64.25
68075;BME280;54864;52.002;5.468;2023-04-04T02:17:33;102887.91;;;2.58;64.23
68075;BME280;54864;52.002;5.468;2023-04-04T02:18:35;102890.50;;;2.56;63.99
68075;BME280;54864;52.002;5.468;2023-04-04T02:19:36;102897.38;;;2.54;63.82
68075;BME280;54864;52.002;5.468;2023-04-04T02:20:40;102901.50;;;2.43;64.15
68075;BME280;54864;52.002;5.468;2023-04-04T02:21:42;102891.03;;;2.41;63.80
68075;BME280;54864;52.002;5.468;2023-04-04T02:22:49;102894.47;;;2.39;63.99
68075;BME280;54864;52.002;5.468;2023-04-04T02:23:51;102890.03;;;2.35;64.42
68075;BME280;54864;52.002;5.468;2023-04-04T02:24:52;102891.13;;;2.46;64.64
68075;BME280;54864;52.002;5.468;2023-04-04T02:25:54;102885.88;;;2.43;64.16
68075;BME280;54864;52.002;5.468;2023-04-04T02:26:54;102893.03;;;2.53;64.10
68075;BME280;54864;52.002;5.468;2023-04-04T02:27:58;102890.31;;;2.48;63.67
68075;BME280;54864;52.002;5.468;2023-04-04T02:28:59;102888.78;;;2.58;64.08
68075;BME280;54864;52.002;5.468;2023-04-04T02:30:03;102892.09;;;2.49;63.89
68075;BME280;54864;52.002;5.468;2023-04-04T02:31:04;102891.03;;;2.41;64.41
68075;BME280;54864;52.002;5.468;2023-04-04T02:32:06;102896.50;;;2.53;64.17
68075;BME280;54864;52.002;5.468;2023-04-04T02:33:07;102887.06;;;2.59;64.16
68075;BME280;54864;52.002;5.468;2023-04-04T02:34:09;102885.09;;;2.47;64.44
68075;BME280;54864;52.002;5.468;2023-04-04T02:35:10;102893.94;;;2.55;64.17
68075;BME280;54864;52.002;5.468;2023-04-04T02:36:12;102888.72;;;2.55;64.26
68075;BME280;54864;52.002;5.468;2023-04-04T02:37:13;102890.44;;;2.53;64.64
68075;BME280;54864;52.002;5.468;2023-04-04T02:38:15;102892.59;;;2.33;64.81
68075;BME280;54864;52.002;5.468;2023-04-04T02:39:16;102893.28;;;2.25;65.22
68075;BME280;54864;52.002;5.468;2023-04-04T02:40:18;102886.69;;;2.40;64.98
68075;BME280;54864;52.002;5.468;2023-04-04T02:41:21;102889.91;;;2.29;65.11
68075;BME280;54864;52.002;5.468;2023-04-04T02:42:25;102890.16;;;2.41;64.91
68075;BME280;54864;52.002;5.468;2023-04-04T02:43:27;102887.47;;;2.36;64.45
68075;BME280;54864;52.002;5.468;2023-04-04T02:44:29;102889.75;;;2.22;64.90
68075;BME280;54864;52.002;5.468;2023-04-04T02:45:30;102892.34;;;2.21;65.50
68075;BME280;54864;52.002;5.468;2023-04-04T02:46:31;102888.81;;;2.19;65.77
68075;BME280;54864;52.002;5.468;2023-04-04T02:47:33;102889.72;;;2.21;65.52
68075;BME280;54864;52.002;5.468;2023-04-04T02:48:35;102891.56;;;2.25;65.68
68075;BME280;54864;52.002;5.468;2023-04-04T02:49:36;102887.38;;;2.32;64.81
68075;BME280;54864;52.002;5.468;2023-04-04T02:50:38;102883.63;;;2.19;65.43
68075;BME280;54864;52.002;5.468;2023-04-04T02:51:41;102887.13;;;2.21;64.97
68075;BME280;54864;52.002;5.468;2023-04-04T02:52:43;102887.19;;;2.24;65.03
68075;BME280;54864;52.002;5.468;2023-04-04T02:53:43;102880.91;;;2.14;64.93
68075;BME280;54864;52.002;5.468;2023-04-04T02:54:46;102881.66;;;2.09;65.93
68075;BME280;54864;52.002;5.468;2023-04-04T02:55:47;102873.84;;;2.09;65.46
68075;BME280;54864;52.002;5.468;2023-04-04T02:56:49;102876.75;;;2.22;65.53
68075;BME280;54864;52.002;5.468;2023-04-04T02:57:50;102870.81;;;2.28;65.64
68075;BME280;54864;52.002;5.468;2023-04-04T02:58:56;102874.25;;;2.27;65.60
68075;BME280;54864;52.002;5.468;2023-04-04T02:59:57;102865.56;;;2.27;65.42
68075;BME280;54864;52.002;5.468;2023-04-04T03:00:59;102877.69;;;2.26;65.56
68075;BME280;54864;52.002;5.468;2023-04-04T03:02:00;102864.56;;;2.20;65.56
68075;BME280;54864;52.002;5.468;2023-04-04T03:03:02;102866.47;;;2.29;65.61
68075;BME280;54864;52.002;5.468;2023-04-04T03:04:04;102863.00;;;2.28;65.68
68075;BME280;54864;52.002;5.468;2023-04-04T03:05:06;102872.41;;;2.21;65.55
68075;BME280;54864;52.002;5.468;2023-04-04T03:06:07;102863.91;;;2.30;66.38
68075;BME280;54864;52.002;5.468;2023-04-04T03:07:10;102864.13;;;2.41;65.70
68075;BME280;54864;52.002;5.468;2023-04-04T03:08:12;102857.97;;;2.36;65.78
68075;BME280;54864;52.002;5.468;2023-04-04T03:09:14;102863.38;;;2.46;65.38
68075;BME280;54864;52.002;5.468;2023-04-04T03:10:15;102857.19;;;2.40;65.42
68075;BME280;54864;52.002;5.468;2023-04-04T03:11:17;102860.81;;;2.48;65.24
68075;BME280;54864;52.002;5.468;2023-04-04T03:12:19;102858.16;;;2.45;65.18
68075;BME280;54864;52.002;5.468;2023-04-04T03:13:21;102864.19;;;2.44;65.70
68075;BME280;54864;52.002;5.468;2023-04-04T03:14:23;102851.94;;;2.38;65.96
68075;BME280;54864;52.002;5.468;2023-04-04T03:15:25;102859.00;;;2.44;65.54
68075;BME280;54864;52.002;5.468;2023-04-04T03:16:27;102863.22;;;2.39;65.50
68075;BME280;54864;52.002;5.468;2023-04-04T03:17:29;102855.19;;;2.28;65.61
68075;BME280;54864;52.002;5.468;2023-04-04T03:18:30;102856.59;;;2.12;66.26
68075;BME280;54864;52.002;5.468;2023-04-04T03:19:32;102858.41;;;2.16;66.00
68075;BME280;54864;52.002;5.468;2023-04-04T03:20:33;102867.84;;;2.11;66.57
68075;BME280;54864;52.002;5.468;2023-04-04T03:21:35;102861.81;;;2.14;66.33
68075;BME280;54864;52.002;5.468;2023-04-04T03:22:36;102864.44;;;2.14;66.61
68075;BME280;54864;52.002;5.468;2023-04-04T03:23:45;102864.56;;;2.20;66.06
68075;BME280;54864;52.002;5.468;2023-04-04T03:24:45;102864.66;;;1.87;66.63
68075;BME280;54864;52.002;5.468;2023-04-04T03:25:47;102870.72;;;1.87;67.03
68075;BME280;54864;52.002;5.468;2023-04-04T03:26:48;102870.72;;;1.87;67.09
68075;BME280;54864;52.002;5.468;2023-04-04T03:27:50;102869.00;;;1.88;67.11
68075;BME280;54864;52.002;5.468;2023-04-04T03:28:51;102875.00;;;1.85;66.56
68075;BME280;54864;52.002;5.468;2023-04-04T03:29:54;102873.47;;;1.94;66.87
68075;BME280;54864;52.002;5.468;2023-04-04T03:30:55;102877.75;;;1.91;66.92
68075;BME280;54864;52.002;5.468;2023-04-04T03:31:57;102872.59;;;1.93;67.28
68075;BME280;54864;52.002;5.468;2023-04-04T03:32:58;102870.22;;;2.02;67.05
68075;BME280;54864;52.002;5.468;2023-04-04T03:34:00;102870.31;;;2.05;67.02
68075;BME280;54864;52.002;5.468;2023-04-04T03:35:01;102870.25;;;2.04;66.83
68075;BME280;54864;52.002;5.468;2023-04-04T03:36:09;102868.81;;;2.16;66.34
68075;BME280;54864;52.002;5.468;2023-04-04T03:37:11;102866.97;;;2.11;65.93
68075;BME280;54864;52.002;5.468;2023-04-04T03:38:12;102866.69;;;1.99;66.54
68075;BME280;54864;52.002;5.468;2023-04-04T03:39:14;102867.69;;;2.05;66.72
68075;BME280;54864;52.002;5.468;2023-04-04T03:40:18;102861.59;;;2.03;66.64
68075;BME280;54864;52.002;5.468;2023-04-04T03:41:19;102860.66;;;2.01;66.92
68075;BME280;54864;52.002;5.468;2023-04-04T03:42:20;102865.06;;;2.04;67.04
68075;BME280;54864;52.002;5.468;2023-04-04T03:43:22;102855.34;;;1.95;67.04
68075;BME280;54864;52.002;5.468;2023-04-04T03:44:23;102856.41;;;2.05;67.01
68075;BME280;54864;52.002;5.468;2023-04-04T03:45:32;102864.22;;;2.05;67.12
68075;BME280;54864;52.002;5.468;2023-04-04T03:46:33;102853.72;;;2.00;66.96
68075;BME280;54864;52.002;5.468;2023-04-04T03:47:35;102856.38;;;2.03;67.02
68075;BME280;54864;52.002;5.468;2023-04-04T03:48:39;102845.16;;;2.06;66.69
68075;BME280;54864;52.002;5.468;2023-04-04T03:49:41;102850.16;;;1.97;66.85
68075;BME280;54864;52.002;5.468;2023-04-04T03:50:44;102844.19;;;2.01;67.39
68075;BME280;54864;52.002;5.468;2023-04-04T03:51:48;102843.22;;;1.96;67.13
68075;BME280;54864;52.002;5.468;2023-04-04T03:52:49;102846.34;;;1.82;67.63
68075;BME280;54864;52.002;5.468;2023-04-04T03:53:51;102846.41;;;1.85;67.50
68075;BME280;54864;52.002;5.468;2023-04-04T03:54:52;102845.59;;;1.88;67.55
68075;BME280;54864;52.002;5.468;2023-04-04T03:55:55;102850.84;;;1.89;67.43
68075;BME280;54864;52.002;5.468;2023-04-04T03:56:56;102840.41;;;1.88;67.61
68075;BME280;54864;52.002;5.468;2023-04-04T03:57:58;102841.28;;;1.88;67.56
68075;BME280;54864;52.002;5.468;2023-04-04T03:58:59;102841.94;;;1.80;68.10
68075;BME280;54864;52.002;5.468;2023-04-04T04:00:01;102847.13;;;1.78;67.92
68075;BME280;54864;52.002;5.468;2023-04-04T04:01:03;102839.31;;;1.78;68.21
68075;BME280;54864;52.002;5.468;2023-04-04T04:02:06;102839.19;;;1.74;68.57
68075;BME280;54864;52.002;5.468;2023-04-04T04:03:06;102853.19;;;1.79;68.42
68075;BME280;54864;52.002;5.468;2023-04-04T04:04:09;102853.94;;;1.73;68.32
68075;BME280;54864;52.002;5.468;2023-04-04T04:05:10;102848.00;;;1.79;68.12
68075;BME280;54864;52.002;5.468;2023-04-04T04:06:14;102849.09;;;1.88;67.82
68075;BME280;54864;52.002;5.468;2023-04-04T04:07:15;102848.91;;;1.81;68.17
68075;BME280;54864;52.002;5.468;2023-04-04T04:08:19;102850.53;;;1.76;68.00
68075;BME280;54864;52.002;5.468;2023-04-04T04:09:25;102856.19;;;1.59;68.52
68075;BME280;54864;52.002;5.468;2023-04-04T04:10:27;102855.28;;;1.57;68.30
68075;BME280;54864;52.002;5.468;2023-04-04T04:11:31;102862.69;;;1.77;68.15
68075;BME280;54864;52.002;5.468;2023-04-04T04:12:36;102854.78;;;1.72;67.41
68075;BME280;54864;52.002;5.468;2023-04-04T04:13:37;102857.41;;;1.74;67.84
68075;BME280;54864;52.002;5.468;2023-04-04T04:14:39;102867.78;;;1.72;67.77
68075;BME280;54864;52.002;5.468;2023-04-04T04:15:40;102855.75;;;1.77;67.85
68075;BME280;54864;52.002;5.468;2023-04-04T04:16:43;102855.72;;;1.76;67.35
68075;BME280;54864;52.002;5.468;2023-04-04T04:17:46;102861.63;;;1.69;67.66
68075;BME280;54864;52.002;5.468;2023-04-04T04:18:48;102858.22;;;1.71;67.94
68075;BME280;54864;52.002;5.468;2023-04-04T04:19:49;102857.38;;;1.72;68.13
68075;BME280;54864;52.002;5.468;2023-04-04T04:20:56;102862.78;;;1.81;67.48
68075;BME280;54864;52.002;5.468;2023-04-04T04:21:58;102863.53;;;1.76;67.43
68075;BME280;54864;52.002;5.468;2023-04-04T04:22:59;102864.50;;;1.81;67.17
68075;BME280;54864;52.002;5.468;2023-04-04T04:24:01;102860.91;;;1.76;67.71
68075;BME280;54864;52.002;5.468;2023-04-04T04:25:03;102865.50;;;1.86;67.71
68075;BME280;54864;52.002;5.468;2023-04-04T04:26:04;102868.88;;;1.82;67.48
68075;BME280;54864;52.002;5.468;2023-04-04T04:27:07;102869.13;;;1.92;67.53
68075;BME280;54864;52.002;5.468;2023-04-04T04:28:08;102865.66;;;1.94;67.43
68075;BME280;54864;52.002;5.468;2023-04-04T04:29:10;102863.91;;;1.92;67.45
68075;BME280;54864;52.002;5.468;2023-04-04T04:30:11;102867.59;;;2.01;67.40
68075;BME280;54864;52.002;5.468;2023-04-04T04:31:13;102876.94;;;1.94;67.19
68075;BME280;54864;52.002;5.468;2023-04-04T04:32:16;102870.63;;;1.83;67.77
68075;BME280;54864;52.002;5.468;2023-04-04T04:33:18;102869.91;;;1.90;67.37
68075;BME280;54864;52.002;5.468;2023-04-04T04:34:19;102866.91;;;1.72;68.08
68075;BME280;54864;52.002;5.468;2023-04-04T04:35:21;102862.75;;;1.80;68.08
68075;BME280;54864;52.002;5.468;2023-04-04T04:36:22;102870.69;;;1.86;67.92
68075;BME280;54864;52.002;5.468;2023-04-04T04:37:26;102869.00;;;1.88;67.71
68075;BME280;54864;52.002;5.468;2023-04-04T04:38:27;102860.22;;;1.83;67.75
68075;BME280;54864;52.002;5.468;2023-04-04T04:39:29;102868.81;;;1.80;67.84
68075;BME280;54864;52.002;5.468;2023-04-04T04:40:31;102863.59;;;1.79;67.93
68075;BME280;54864;52.002;5.468;2023-04-04T04:41:33;102861.03;;;1.80;67.71
68075;BME280;54864;52.002;5.468;2023-04-04T04:42:33;102862.38;;;1.65;68.06
68075;BME280;54864;52.002;5.468;2023-04-04T04:43:35;102871.03;;;1.64;68.28
68075;BME280;54864;52.002;5.468;2023-04-04T04:44:37;102864.28;;;1.72;67.82
68075;BME280;54864;52.002;5.468;2023-04-04T04:45:40;102859.03;;;1.69;68.08
68075;BME280;54864;52.002;5.468;2023-04-04T04:46:41;102857.09;;;1.60;68.21
68075;BME280;54864;52.002;5.468;2023-04-04T04:47:44;102860.78;;;1.70;68.34
68075;BME280;54864;52.002;5.468;2023-04-04T04:48:45;102862.38;;;1.65;68.12
68075;BME280;54864;52.002;5.468;2023-04-04T04:49:47;102858.94;;;1.66;68.19
68075;BME280;54864;52.002;5.468;2023-04-04T04:50:49;102856.16;;;1.58;68.38
68075;BME280;54864;52.002;5.468;2023-04-04T04:51:53;102861.47;;;1.63;68.53
68075;BME280;54864;52.002;5.468;2023-04-04T04:52:55;102864.88;;;1.60;68.05
68075;BME280;54864;52.002;5.468;2023-04-04T04:53:57;102861.41;;;1.59;68.24
68075;BME280;54864;52.002;5.468;2023-04-04T04:54:57;102859.50;;;1.52;68.26
68075;BME280;54864;52.002;5.468;2023-04-04T04:55:59;102869.81;;;1.49;68.21
68075;BME280;54864;52.002;5.468;2023-04-04T04:57:02;102862.84;;;1.48;68.44
68075;BME280;54864;52.002;5.468;2023-04-04T04:58:05;102868.84;;;1.46;68.64
68075;BME280;54864;52.002;5.468;2023-04-04T04:59:06;102864.44;;;1.42;68.30
68075;BME280;54864;52.002;5.468;2023-04-04T05:00:11;102866.09;;;1.40;68.81
68075;BME280;54864;52.002;5.468;2023-04-04T05:01:13;102872.31;;;1.45;68.45
68075;BME280;54864;52.002;5.468;2023-04-04T05:02:14;102870.56;;;1.45;68.13
68075;BME280;54864;52.002;5.468;2023-04-04T05:03:17;102878.22;;;1.39;68.62
68075;BME280;54864;52.002;5.468;2023-04-04T05:04:18;102870.50;;;1.42;68.43
68075;BME280;54864;52.002;5.468;2023-04-04T05:05:20;102875.53;;;1.36;68.38
68075;BME280;54864;52.002;5.468;2023-04-04T05:06:21;102873.06;;;1.41;68.44
68075;BME280;54864;52.002;5.468;2023-04-04T05:07:26;102879.94;;;1.39;68.60
68075;BME280;54864;52.002;5.468;2023-04-04T05:08:29;102872.16;;;1.39;68.65
68075;BME280;54864;52.002;5.468;2023-04-04T05:09:34;102875.59;;;1.38;68.65
68075;BME280;54864;52.002;5.468;2023-04-04T05:10:38;102878.22;;;1.39;68.77
68075;BME280;54864;52.002;5.468;2023-04-04T05:11:39;102881.69;;;1.40;68.61
68075;BME280;54864;52.002;5.468;2023-04-04T05:12:41;102888.53;;;1.36;68.64
68075;BME280;54864;52.002;5.468;2023-04-04T05:13:44;102885.97;;;1.38;69.01
68075;BME280;54864;52.002;5.468;2023-04-04T05:14:46;102891.78;;;1.29;69.29
68075;BME280;54864;52.002;5.468;2023-04-04T05:15:48;102888.69;;;1.42;68.91
68075;BME280;54864;52.002;5.468;2023-04-04T05:16:51;102880.78;;;1.38;68.97
68075;BME280;54864;52.002;5.468;2023-04-04T05:17:53;102883.34;;;1.36;69.06
68075;BME280;54864;52.002;5.468;2023-04-04T05:18:56;102883.25;;;1.33;69.21
68075;BME280;54864;52.002;5.468;2023-04-04T05:19:58;102889.41;;;1.37;69.28
68075;BME280;54864;52.002;5.468;2023-04-04T05:21:01;102883.19;;;1.30;69.01
68075;BME280;54864;52.002;5.468;2023-04-04T05:22:03;102882.69;;;1.45;69.32
68075;BME280;54864;52.002;5.468;2023-04-04T05:23:07;102881.66;;;1.38;69.61
68075;BME280;54864;52.002;5.468;2023-04-04T05:24:09;102880.09;;;1.45;69.49
68075;BME280;54864;52.002;5.468;2023-04-04T05:25:09;102887.13;;;1.49;69.27
68075;BME280;54864;52.002;5.468;2023-04-04T05:26:11;102883.50;;;1.42;69.40
68075;BME280;54864;52.002;5.468;2023-04-04T05:27:15;102884.41;;;1.44;69.73
68075;BME280;54864;52.002;5.468;2023-04-04T05:28:16;102886.94;;;1.41;69.55
68075;BME280;54864;52.002;5.468;2023-04-04T05:29:17;102886.38;;;1.53;69.26
68075;BME280;54864;52.002;5.468;2023-04-04T05:30:19;102890.69;;;1.52;69.18